createdAt,value
2023-04-24T00:01:08.779Z,33.89
2023-04-24T00:03:37.084Z,33.95
2023-04-24T00:06:05.650Z,33.78
2023-04-24T00:08:33.746Z,33.87
2023-04-24T00:11:01.794Z,34.16
2023-04-24T00:13:31.154Z,34.15
2023-04-24T00:16:00.199Z,34.13
2023-04-24T00:18:28.234Z,34.03
2023-04-24T00:20:56.318Z,34.02
2023-04-24T00:23:24.299Z,33.98
2023-04-24T00:25:52.214Z,33.92
2023-04-24T00:28:20.171Z,33.86
2023-04-24T00:30:50.773Z,34.09
2023-04-24T00:33:20.089Z,34.34
2023-04-24T00:35:48.091Z,34.36
2023-04-24T00:38:16.369Z,34.24
2023-04-24T00:40:46.461Z,34.05
2023-04-24T00:43:15.637Z,34.11
2023-04-24T00:45:44.118Z,34.23
2023-04-24T00:48:13.526Z,34.49
2023-04-24T00:50:41.512Z,34.21
2023-04-24T00:53:09.513Z,34.52
2023-04-24T00:55:38.419Z,34.28
2023-04-24T00:58:06.861Z,34.45
2023-04-24T01:00:34.877Z,34.32
2023-04-24T01:03:03.884Z,34.62
2023-04-24T01:05:33.437Z,34.40
2023-04-24T01:08:01.474Z,34.38
2023-04-24T01:10:29.638Z,34.60
2023-04-24T01:12:57.772Z,34.84
2023-04-24T01:15:25.777Z,34.82
2023-04-24T01:17:53.964Z,34.65
2023-04-24T01:20:25.909Z,34.47
2023-04-24T01:22:57.589Z,34.59
2023-04-24T01:25:25.798Z,34.80
2023-04-24T01:27:53.877Z,34.70
2023-04-24T01:30:21.908Z,34.74
2023-04-24T01:32:49.953Z,34.62
2023-04-24T01:35:18.111Z,34.49
2023-04-24T01:37:46.069Z,34.67
2023-04-24T01:40:15.385Z,34.93
2023-04-24T01:42:43.445Z,34.92
2023-04-24T01:45:13.309Z,34.58
2023-04-24T01:47:42.153Z,34.85
2023-04-24T01:50:11.418Z,34.63
2023-04-24T01:52:39.680Z,34.96
2023-04-24T01:55:09.172Z,34.83
2023-04-24T01:57:38.612Z,34.76
2023-04-24T02:00:07.998Z,34.56
2023-04-24T02:02:36.602Z,35.04
2023-04-24T02:05:10.378Z,35.07
2023-04-24T02:07:39.773Z,34.90
2023-04-24T02:10:14.125Z,35.16
2023-04-24T02:12:47.178Z,34.84
2023-04-24T02:15:23.344Z,35.21
2023-04-24T02:18:01.509Z,35.15
2023-04-24T02:20:38.249Z,34.91
2023-04-24T02:23:10.668Z,35.04
2023-04-24T02:25:39.941Z,34.80
2023-04-24T02:28:09.365Z,35.18
2023-04-24T02:30:37.784Z,35.08
2023-04-24T02:33:06.121Z,35.15
2023-04-24T02:35:34.241Z,35.33
2023-04-24T02:38:02.527Z,35.08
2023-04-24T02:40:30.444Z,35.26
2023-04-24T02:42:58.401Z,35.21
2023-04-24T02:45:27.787Z,35.26
2023-04-24T02:47:55.934Z,35.12
2023-04-24T02:50:24.003Z,35.25
2023-04-24T02:52:51.935Z,34.98
2023-04-24T02:55:20.159Z,35.19
2023-04-24T02:57:48.166Z,35.17
2023-04-24T03:00:17.778Z,34.87
2023-04-24T03:02:47.241Z,35.17
2023-04-24T03:05:15.195Z,34.90
2023-04-24T03:07:43.139Z,35.17
2023-04-24T03:10:11.657Z,35.24
2023-04-24T03:12:39.622Z,35.17
2023-04-24T03:15:08.962Z,35.08
2023-04-24T03:17:38.139Z,35.02
2023-04-24T03:20:09.191Z,35.46
2023-04-24T03:22:37.226Z,35.47
2023-04-24T03:25:06.095Z,35.02
2023-04-24T03:27:34.138Z,35.13
2023-04-24T03:30:02.685Z,35.21
2023-04-24T03:32:30.761Z,35.43
2023-04-24T03:34:58.695Z,35.10
2023-04-24T03:37:28.542Z,35.09
2023-04-24T03:39:56.550Z,35.54
2023-04-24T03:42:24.520Z,35.28
2023-04-24T03:44:52.470Z,35.38
2023-04-24T03:47:20.502Z,35.55
2023-04-24T03:49:48.537Z,35.26
2023-04-24T03:52:18.952Z,35.25
2023-04-24T03:54:49.783Z,35.11
2023-04-24T03:57:17.789Z,35.47
2023-04-24T03:59:45.721Z,35.09
2023-04-24T04:02:13.725Z,35.47
2023-04-24T04:04:41.997Z,35.42
2023-04-24T04:07:10.118Z,35.30
2023-04-24T04:09:38.172Z,35.44
2023-04-24T04:12:07.497Z,35.02
2023-04-24T04:14:35.561Z,35.26
2023-04-24T04:17:03.489Z,35.18
2023-04-24T04:19:31.931Z,35.48
2023-04-24T04:22:00.179Z,35.20
2023-04-24T04:24:28.165Z,35.34
2023-04-24T04:26:59.096Z,35.41
2023-04-24T04:29:28.537Z,35.42
2023-04-24T04:31:56.671Z,35.49
2023-04-24T04:34:24.664Z,35.26
2023-04-24T04:36:52.710Z,35.26
2023-04-24T04:39:20.880Z,35.61
2023-04-24T04:41:51.919Z,35.56
2023-04-24T04:44:20.004Z,35.27
2023-04-24T04:46:58.457Z,35.48
2023-04-24T04:49:29.646Z,35.60
2023-04-24T04:51:57.741Z,35.57
2023-04-24T04:54:26.026Z,35.53
2023-04-24T04:56:54.796Z,35.48
2023-04-24T04:59:24.080Z,35.51
2023-04-24T05:01:53.576Z,35.40
2023-04-24T05:04:21.886Z,35.52
2023-04-24T05:06:52.130Z,35.52
2023-04-24T05:09:21.582Z,35.18
2023-04-24T05:11:49.612Z,35.24
2023-04-24T05:14:18.934Z,35.54
2023-04-24T05:16:47.221Z,35.37
2023-04-24T05:19:17.932Z,35.44
2023-04-24T05:21:46.435Z,35.27
2023-04-24T05:24:14.511Z,35.26
2023-04-24T05:26:42.801Z,35.39
2023-04-24T05:29:10.820Z,35.26
2023-04-24T05:31:38.872Z,35.33
2023-04-24T05:34:07.188Z,35.64
2023-04-24T05:36:36.564Z,35.55
2023-04-24T05:39:08.146Z,35.46
2023-04-24T05:41:36.495Z,35.71
2023-04-24T05:44:12.359Z,35.78
2023-04-24T05:46:43.279Z,36.06
2023-04-24T05:49:13.418Z,35.77
2023-04-24T05:51:48.650Z,36.10
2023-04-24T05:54:24.278Z,36.29
2023-04-24T05:56:52.913Z,36.28
2023-04-24T05:59:21.150Z,36.30
2023-04-24T06:01:49.281Z,36.43
2023-04-24T06:04:17.468Z,35.95
2023-04-24T06:06:46.985Z,36.20
2023-04-24T06:09:14.873Z,36.27
2023-04-24T06:11:42.899Z,36.62
2023-04-24T06:14:11.145Z,36.50
2023-04-24T06:16:40.008Z,36.61
2023-04-24T06:19:08.081Z,36.65
2023-04-24T06:21:36.151Z,36.76
2023-04-24T06:24:05.665Z,36.39
2023-04-24T06:26:33.732Z,36.74
2023-04-24T06:29:01.813Z,36.40
2023-04-24T06:31:30.018Z,36.42
2023-04-24T06:33:58.049Z,36.46
2023-04-24T06:36:26.067Z,36.99
2023-04-24T06:38:54.327Z,36.81
2023-04-24T06:41:23.617Z,36.66
2023-04-24T06:43:51.728Z,37.05
2023-04-24T06:46:19.744Z,36.89
2023-04-24T06:48:47.795Z,37.32
2023-04-24T06:51:15.800Z,37.84
2023-04-24T06:53:44.169Z,37.81
2023-04-24T06:56:15.545Z,37.78
2023-04-24T06:58:44.952Z,37.53
2023-04-24T07:01:12.925Z,37.56
2023-04-24T07:03:41.036Z,37.46
2023-04-24T07:06:09.720Z,37.41
2023-04-24T07:08:38.025Z,37.23
2023-04-24T07:11:06.767Z,37.10
2023-04-24T07:13:36.505Z,37.54
2023-04-24T07:16:06.083Z,37.21
2023-04-24T07:18:34.206Z,37.30
2023-04-24T07:21:02.228Z,37.01
2023-04-24T07:23:30.340Z,37.03
2023-04-24T07:25:58.673Z,37.43
2023-04-24T07:28:26.881Z,36.90
2023-04-24T07:30:55.611Z,37.04
2023-04-24T07:33:25.035Z,37.22
2023-04-24T07:35:53.069Z,37.07
2023-04-24T07:38:23.191Z,37.22
2023-04-24T07:40:51.332Z,37.39
2023-04-24T07:43:19.395Z,37.23
2023-04-24T07:45:47.487Z,37.03
2023-04-24T07:48:17.544Z,37.16
2023-04-24T07:50:46.958Z,37.23
2023-04-24T07:53:14.996Z,36.93
2023-04-24T07:55:42.936Z,36.88
2023-04-24T07:58:11.000Z,37.06
2023-04-24T08:00:39.018Z,37.29
2023-04-24T08:03:07.175Z,37.02
2023-04-24T08:05:36.149Z,37.23
2023-04-24T08:08:07.041Z,37.01
2023-04-24T08:10:35.010Z,36.96
2023-04-24T08:13:03.775Z,37.26
2023-04-24T08:15:31.831Z,37.21
2023-04-24T08:17:59.896Z,37.18
2023-04-24T08:20:28.108Z,36.82
2023-04-24T08:22:56.338Z,37.28
2023-04-24T08:25:25.832Z,37.35
2023-04-24T08:27:53.868Z,37.17
2023-04-24T08:30:22.046Z,37.04
2023-04-24T08:32:50.159Z,37.28
2023-04-24T08:35:18.208Z,37.24
2023-04-24T08:37:46.314Z,37.08
2023-04-24T08:40:15.818Z,37.20
2023-04-24T08:42:51.001Z,37.55
2023-04-24T08:45:22.148Z,37.17
2023-04-24T08:47:50.328Z,37.46
2023-04-24T08:50:19.057Z,37.41
2023-04-24T08:52:47.235Z,37.51
2023-04-24T08:55:16.507Z,37.53
2023-04-24T08:57:46.559Z,37.23
2023-04-24T09:00:15.768Z,37.53
2023-04-24T09:02:45.377Z,37.07
2023-04-24T09:05:13.693Z,37.46
2023-04-24T09:07:41.964Z,37.55
2023-04-24T09:10:10.365Z,37.16
2023-04-24T09:12:38.302Z,37.25
2023-04-24T09:15:09.055Z,37.14
2023-04-24T09:17:37.657Z,37.59
2023-04-24T09:20:06.711Z,37.30
2023-04-24T09:22:34.820Z,37.33
2023-04-24T09:25:05.123Z,37.41
2023-04-24T09:27:33.273Z,37.39
2023-04-24T09:30:01.708Z,37.23
2023-04-24T09:32:32.863Z,37.57
2023-04-24T09:35:11.488Z,37.72
2023-04-24T09:37:39.908Z,37.32
2023-04-24T09:40:15.113Z,37.39
2023-04-24T09:42:46.181Z,37.38
2023-04-24T09:45:15.634Z,37.26
2023-04-24T09:47:45.717Z,37.57
2023-04-24T09:50:15.401Z,37.43
2023-04-24T09:52:45.470Z,37.27
2023-04-24T09:55:15.463Z,37.53
2023-04-24T09:57:53.553Z,37.75
2023-04-24T10:00:27.211Z,37.41
2023-04-24T10:03:03.850Z,37.38
2023-04-24T10:05:32.667Z,37.68
2023-04-24T10:08:02.827Z,37.74
2023-04-24T10:10:31.042Z,37.54
2023-04-24T10:12:59.141Z,37.82
2023-04-24T10:15:27.129Z,37.60
2023-04-24T10:17:55.287Z,37.70
2023-04-24T10:20:25.462Z,37.70
2023-04-24T10:22:54.179Z,37.58
2023-04-24T10:25:22.898Z,37.93
2023-04-24T10:27:51.419Z,37.81
2023-04-24T10:30:19.677Z,37.59
2023-04-24T10:32:47.788Z,38.04
2023-04-24T10:35:17.202Z,37.55
2023-04-24T10:37:48.741Z,37.90
2023-04-24T10:40:19.697Z,37.78
2023-04-24T10:42:49.641Z,37.63
2023-04-24T10:45:22.433Z,37.85
2023-04-24T10:47:59.313Z,37.86
2023-04-24T10:50:28.867Z,37.79
2023-04-24T10:53:07.665Z,37.92
2023-04-24T10:55:46.152Z,37.87
2023-04-24T10:58:14.226Z,37.99
2023-04-24T11:00:42.704Z,38.26
2023-04-24T11:03:25.806Z,37.98
2023-04-24T11:06:01.706Z,38.32
2023-04-24T11:08:32.565Z,38.03
2023-04-24T11:11:02.719Z,37.99
2023-04-24T11:14:07.472Z,38.20
2023-04-24T11:16:37.013Z,38.31
2023-04-24T11:19:07.584Z,38.28
2023-04-24T11:21:43.032Z,38.47
2023-04-24T11:24:28.959Z,38.33
2023-04-24T11:26:57.845Z,38.33
2023-04-24T11:29:28.765Z,38.29
2023-04-24T11:31:58.309Z,38.40
2023-04-24T11:34:26.340Z,38.22
2023-04-24T11:36:54.590Z,38.11
2023-04-24T11:39:22.611Z,38.41
2023-04-24T11:41:51.917Z,38.34
2023-04-24T11:44:19.940Z,38.34
2023-04-24T11:46:48.068Z,38.49
2023-04-24T11:49:16.177Z,38.29
2023-04-24T11:51:53.020Z,38.22
2023-04-24T11:54:21.822Z,38.22
2023-04-24T11:56:51.155Z,38.04
2023-04-24T11:59:19.299Z,38.34
2023-04-24T12:01:47.602Z,38.11
2023-04-24T12:04:16.061Z,38.38
2023-04-24T12:07:01.834Z,38.11
2023-04-24T12:09:29.948Z,38.15
2023-04-24T12:11:59.270Z,38.38
2023-04-24T12:14:27.333Z,38.23
2023-04-24T12:16:55.482Z,38.09
2023-04-24T12:19:23.604Z,38.48
2023-04-24T12:22:02.522Z,38.34
2023-04-24T12:24:31.221Z,38.41
2023-04-24T12:27:02.661Z,38.18
2023-04-24T12:29:30.801Z,38.33
2023-04-24T12:31:58.742Z,38.30
2023-04-24T12:34:27.503Z,38.10
2023-04-24T12:36:55.476Z,38.42
2023-04-24T12:39:25.820Z,38.55
2023-04-24T12:41:58.129Z,38.28
2023-04-24T12:44:35.585Z,38.21
2023-04-24T12:47:03.697Z,38.21
2023-04-24T12:49:32.452Z,38.28
2023-04-24T12:52:00.406Z,38.63
2023-04-24T12:54:28.425Z,38.42
2023-04-24T12:56:56.585Z,38.41
2023-04-24T12:59:24.593Z,38.24
2023-04-24T13:01:54.337Z,38.77
2023-04-24T13:04:22.514Z,38.69
2023-04-24T13:06:50.669Z,38.64
2023-04-24T13:09:19.000Z,38.31
2023-04-24T13:11:46.944Z,38.55
2023-04-24T13:14:15.039Z,38.30
2023-04-24T13:16:43.219Z,38.37
2023-04-24T13:19:12.641Z,38.36
2023-04-24T13:21:40.637Z,38.49
2023-04-24T13:24:08.900Z,38.85
2023-04-24T13:26:36.849Z,38.45
2023-04-24T13:29:04.808Z,38.87
2023-04-24T13:31:33.179Z,38.81
2023-04-24T13:34:01.172Z,38.96
2023-04-24T13:36:31.215Z,38.99
2023-04-24T13:38:59.280Z,38.66
2023-04-24T13:41:27.288Z,38.94
2023-04-24T13:43:55.329Z,38.68
2023-04-24T13:46:23.444Z,38.70
2023-04-24T13:48:51.534Z,39.05
2023-04-24T13:51:19.564Z,38.94
2023-04-24T13:53:48.885Z,38.97
2023-04-24T13:56:17.183Z,38.97
2023-04-24T13:58:45.407Z,38.51
2023-04-24T14:01:13.383Z,38.83
2023-04-24T14:03:41.445Z,38.52
2023-04-24T14:06:09.704Z,38.69
2023-04-24T14:08:37.684Z,38.59
2023-04-24T14:11:07.098Z,38.80
2023-04-24T14:13:35.108Z,38.55
2023-04-24T14:16:03.167Z,38.74
2023-04-24T14:18:31.213Z,38.56
2023-04-24T14:20:59.144Z,38.56
2023-04-24T14:23:27.052Z,38.72
2023-04-24T14:25:55.170Z,38.54
2023-04-24T14:28:24.654Z,38.86
2023-04-24T14:30:52.621Z,38.77
2023-04-24T14:33:20.669Z,38.60
2023-04-24T14:35:48.705Z,38.75
2023-04-24T14:38:16.828Z,38.57
2023-04-24T14:41:05.746Z,38.51
2023-04-24T14:43:36.264Z,38.62
2023-04-24T14:46:04.481Z,38.50
2023-04-24T14:48:32.555Z,38.71
2023-04-24T14:51:00.717Z,38.68
2023-04-24T14:53:28.817Z,38.60
2023-04-24T14:55:56.938Z,38.70
2023-04-24T14:58:24.934Z,38.65
2023-04-24T15:00:55.602Z,38.19
2023-04-24T15:03:24.597Z,38.32
2023-04-24T15:05:53.150Z,38.27
2023-04-24T15:08:21.345Z,38.46
2023-04-24T15:10:49.417Z,38.16
2023-04-24T15:13:17.627Z,38.37
2023-04-24T15:15:48.118Z,38.16
2023-04-24T15:18:17.695Z,38.39
2023-04-24T15:20:45.878Z,38.08
2023-04-24T15:23:13.921Z,38.47
2023-04-24T15:25:41.898Z,38.20
2023-04-24T15:28:10.004Z,38.33
2023-04-24T15:30:38.175Z,38.12
2023-04-24T15:33:06.620Z,38.12
2023-04-24T15:35:36.057Z,38.24
2023-04-24T15:38:05.240Z,38.31
2023-04-24T15:40:33.241Z,38.38
2023-04-24T15:43:01.328Z,38.14
2023-04-24T15:45:29.360Z,37.95
2023-04-24T15:47:57.530Z,37.96
2023-04-24T15:50:26.065Z,37.96
2023-04-24T15:52:55.452Z,38.27
2023-04-24T15:55:23.450Z,38.03
2023-04-24T15:57:51.429Z,38.29
2023-04-24T16:00:20.117Z,38.21
2023-04-24T16:02:49.127Z,38.19
2023-04-24T16:05:17.176Z,38.10
2023-04-24T16:07:45.112Z,38.23
2023-04-24T16:10:14.502Z,38.04
2023-04-24T16:12:42.529Z,37.74
2023-04-24T16:15:11.531Z,38.14
2023-04-24T16:17:39.806Z,37.97
2023-04-24T16:20:09.024Z,37.75
2023-04-24T16:22:37.077Z,38.19
2023-04-24T16:25:05.450Z,37.97
2023-04-24T16:27:34.831Z,38.04
2023-04-24T16:30:02.970Z,37.79
2023-04-24T16:32:31.028Z,37.75
2023-04-24T16:34:59.035Z,37.80
2023-04-24T16:37:27.280Z,37.87
2023-04-24T16:39:55.353Z,38.15
2023-04-24T16:42:23.402Z,37.89
2023-04-24T16:44:52.801Z,38.13
2023-04-24T16:47:20.803Z,38.25
2023-04-24T16:49:50.086Z,37.83
2023-04-24T16:52:18.064Z,38.25
2023-04-24T16:54:46.071Z,38.13
2023-04-24T16:57:14.047Z,38.01
2023-04-24T16:59:41.992Z,38.05
2023-04-24T17:02:11.514Z,38.44
2023-04-24T17:04:39.654Z,38.55
2023-04-24T17:07:07.642Z,38.14
2023-04-24T17:09:35.672Z,38.26
2023-04-24T17:12:03.757Z,38.50
2023-04-24T17:14:31.801Z,38.28
2023-04-24T17:16:59.974Z,38.48
2023-04-24T17:19:29.436Z,38.41
2023-04-24T17:21:58.137Z,38.45
2023-04-24T17:24:26.281Z,38.40
2023-04-24T17:26:58.794Z,38.38
2023-04-24T17:29:29.681Z,38.50
2023-04-24T17:31:57.767Z,38.61
2023-04-24T17:34:25.882Z,38.56
2023-04-24T17:36:55.173Z,38.72
2023-04-24T17:39:23.149Z,38.56
2023-04-24T17:41:51.149Z,38.76
2023-04-24T17:44:19.120Z,38.90
2023-04-24T17:46:47.131Z,38.84
2023-04-24T17:49:15.079Z,38.93
2023-04-24T17:51:43.078Z,38.46
2023-04-24T17:54:12.508Z,38.75
2023-04-24T17:56:40.494Z,38.81
2023-04-24T17:59:08.443Z,38.65
2023-04-24T18:01:36.555Z,38.52
2023-04-24T18:04:04.697Z,38.58
2023-04-24T18:06:32.955Z,38.58
2023-04-24T18:09:01.009Z,39.07
2023-04-24T18:11:30.464Z,38.90
2023-04-24T18:13:58.417Z,38.75
2023-04-24T18:16:26.461Z,38.83
2023-04-24T18:18:54.785Z,38.92
2023-04-24T18:21:23.827Z,39.06
2023-04-24T18:23:51.882Z,38.95
2023-04-24T18:26:20.475Z,39.10
2023-04-24T18:28:50.061Z,39.00
2023-04-24T18:31:18.517Z,39.22
2023-04-24T18:33:46.560Z,38.99
2023-04-24T18:36:14.564Z,39.13
2023-04-24T18:38:42.684Z,39.47
2023-04-24T18:41:10.723Z,39.11
2023-04-24T18:43:38.769Z,39.08
2023-04-24T18:46:08.202Z,38.90
2023-04-24T18:48:36.137Z,39.26
2023-04-24T18:51:04.163Z,39.63
2023-04-24T18:53:32.176Z,39.22
2023-04-24T18:56:00.157Z,39.18
2023-04-24T18:58:28.420Z,39.56
2023-04-24T19:00:56.660Z,39.38
2023-04-24T19:03:26.205Z,39.16
2023-04-24T19:05:54.206Z,39.61
2023-04-24T19:08:22.263Z,39.59
2023-04-24T19:10:51.309Z,39.52
2023-04-24T19:13:21.216Z,39.47
2023-04-24T19:15:49.179Z,39.58
2023-04-24T19:18:18.150Z,39.75
2023-04-24T19:20:47.614Z,39.44
2023-04-24T19:23:15.667Z,39.55
2023-04-24T19:25:43.695Z,39.33
2023-04-24T19:28:12.391Z,39.63
2023-04-24T19:30:40.724Z,39.59
2023-04-24T19:33:08.750Z,39.29
2023-04-24T19:35:37.420Z,39.71
2023-04-24T19:38:06.776Z,39.46
2023-04-24T19:40:34.812Z,39.63
2023-04-24T19:43:02.805Z,39.35
2023-04-24T19:45:30.883Z,39.97
2023-04-24T19:48:00.039Z,39.61
2023-04-24T19:50:28.040Z,39.98
2023-04-24T19:52:56.058Z,39.61
2023-04-24T19:55:25.655Z,39.83
2023-04-24T19:57:53.713Z,39.61
2023-04-24T20:00:21.753Z,40.08
2023-04-24T20:02:49.839Z,39.89
2023-04-24T20:05:18.228Z,40.07
2023-04-24T20:07:46.897Z,40.13
2023-04-24T20:10:14.824Z,39.97
2023-04-24T20:12:44.260Z,39.97
2023-04-24T20:15:13.255Z,40.10
2023-04-24T20:17:41.264Z,39.62
2023-04-24T20:20:10.338Z,39.98
2023-04-24T20:22:39.019Z,40.16
2023-04-24T20:25:08.210Z,40.21
2023-04-24T20:27:36.851Z,39.95
2023-04-24T20:30:10.631Z,39.72
2023-04-24T20:32:38.691Z,40.02
2023-04-24T20:35:07.566Z,39.82
2023-04-24T20:37:36.286Z,39.63
2023-04-24T20:40:05.854Z,40.04
2023-04-24T20:42:34.384Z,40.09
2023-04-24T20:45:02.324Z,40.06
2023-04-24T20:47:31.745Z,40.09
2023-04-24T20:50:02.253Z,39.70
2023-04-24T20:52:30.423Z,40.10
2023-04-24T20:54:58.441Z,40.23
2023-04-24T20:57:26.568Z,39.96
2023-04-24T20:59:54.658Z,40.15
2023-04-24T21:02:22.680Z,40.42
2023-04-24T21:04:52.257Z,40.43
2023-04-24T21:07:20.288Z,40.52
2023-04-24T21:09:48.265Z,40.13
2023-04-24T21:12:16.315Z,40.18
2023-04-24T21:14:44.320Z,40.45
2023-04-24T21:17:12.289Z,40.34
2023-04-24T21:19:40.553Z,40.26
2023-04-24T21:22:10.259Z,40.61
2023-04-24T21:24:38.246Z,40.69
2023-04-24T21:27:07.595Z,40.29
2023-04-24T21:29:35.895Z,40.53
2023-04-24T21:32:04.034Z,40.53
2023-04-24T21:34:32.097Z,40.00
2023-04-24T21:37:00.206Z,40.44
2023-04-24T21:39:29.709Z,40.05
2023-04-24T21:41:58.468Z,39.93
2023-04-24T21:44:26.800Z,40.06
2023-04-24T21:46:54.990Z,40.42
2023-04-24T21:49:23.059Z,40.22
2023-04-24T21:51:51.116Z,40.30
2023-04-24T21:54:20.628Z,40.30
2023-04-24T21:56:50.058Z,40.39
2023-04-24T21:59:18.193Z,40.02
2023-04-24T22:01:46.666Z,40.09
2023-04-24T22:04:14.791Z,39.99
2023-04-24T22:06:43.030Z,40.43
2023-04-24T22:09:11.354Z,40.39
2023-04-24T22:11:39.480Z,40.14
2023-04-24T22:14:08.933Z,40.06
2023-04-24T22:16:37.364Z,40.34
2023-04-24T22:19:05.535Z,40.48
2023-04-24T22:21:33.934Z,39.99
2023-04-24T22:24:01.978Z,40.47
2023-04-24T22:26:30.019Z,40.08
2023-04-24T22:28:58.085Z,40.28
2023-04-24T22:31:27.539Z,40.16
2023-04-24T22:33:55.545Z,40.26
2023-04-24T22:36:23.545Z,40.25
2023-04-24T22:38:51.677Z,40.11
2023-04-24T22:41:19.717Z,40.25
2023-04-24T22:43:47.974Z,39.94
2023-04-24T22:46:31.237Z,40.13
2023-04-24T22:48:59.592Z,40.04
2023-04-24T22:51:27.610Z,39.90
2023-04-24T22:53:56.447Z,40.01
2023-04-24T22:56:24.463Z,40.00
2023-04-24T22:58:52.569Z,40.12
2023-04-24T23:01:34.099Z,40.24
2023-04-24T23:04:02.256Z,40.19
2023-04-24T23:06:31.000Z,39.76
2023-04-24T23:08:59.027Z,40.09
2023-04-24T23:11:27.135Z,40.17
2023-04-24T23:13:56.437Z,40.29
2023-04-24T23:16:24.519Z,40.00
2023-04-24T23:18:53.930Z,40.31
2023-04-24T23:21:22.876Z,40.22
2023-04-24T23:23:52.930Z,40.12
2023-04-24T23:26:20.934Z,39.99
2023-04-24T23:28:48.942Z,40.24
2023-04-24T23:31:17.019Z,40.25
2023-04-24T23:33:45.139Z,39.88
2023-04-24T23:36:15.101Z,40.33
2023-04-24T23:38:50.148Z,39.97
2023-04-24T23:41:18.909Z,40.16
2023-04-24T23:43:47.270Z,40.08
2023-04-24T23:46:15.714Z,39.88
2023-04-24T23:48:43.691Z,40.07
2023-04-24T23:51:11.735Z,39.76
2023-04-24T23:53:41.528Z,39.87
2023-04-24T23:56:09.493Z,39.71
2023-04-24T23:58:37.825Z,40.08
